Terminal Aerodrome Forecast
Issued by NWS

Home | Current Version | Previous Version | Text Only | Print | Product List | Glossary On
Versions: 1 2 3 4 5 6 7 8 9 10 11 12
000
FTUS42 KGSP 291700
TAFGMU
TAF
KGMU 291734Z 2918/3018 09007KT P6SM FEW060
     FM300100 11003KT P6SM FEW050
     FM300600 00000KT P6SM FEW050
      TEMPO 3011/3013 3SM BR SCT009
     FM301300 13005KT P6SM FEW060=

USA.gov is the U.S. government's official web portal to all federal, state and local government web resources and services.